This is the latest recevied weather packets stored in our database for station/object IT9RID. If no packets are shown the sender has not sent any weather packets the latest 10 day(s).
| Time | Temp. | Humidity | Pressure | Rain* | Wind** | Luminosity | Snow |
|---|---|---|---|---|---|---|---|
| 1788089301 | 37.78° C | 26% | 1013.5 hPa | 0 mm | - | - | - |
| 1788088701 | 37.78° C | 26% | 1013.4 hPa | 0 mm | - | - | - |
| 1788088101 | 37.22° C | 27% | 1013.5 hPa | 0 mm | - | - | - |
| 1788087501 | 36.67° C | 28% | 1013.5 hPa | 0 mm | - | - | - |
| 1788086901 | 35.56° C | 31% | 1013.6 hPa | 0 mm | - | - | - |
| 1788086302 | 35.56° C | 38% | 1013.6 hPa | 0 mm | - | - | - |
| 1788085700 | 35.56° C | 36% | 1013.6 hPa | 0 mm | - | - | - |
| 1788085100 | 37.22° C | 29% | 1013.4 hPa | 0 mm | - | - | - |
| 1788084500 | 37.78° C | 26% | 1013.3 hPa | 0 mm | - | - | - |
| 1788083900 | 37.78° C | 27% | 1013.3 hPa | 0 mm | - | - | - |
| 1788083301 | 37.78° C | 25% | 1013.3 hPa | 0 mm | - | - | - |
| 1788082099 | 38.33° C | 28% | 1013.4 hPa | 0 mm | - | - | - |
| 1788081499 | 37.22° C | 30% | 1013.4 hPa | 0 mm | - | - | - |
| 1788080899 | 36.67° C | 31% | 1013.5 hPa | 0 mm | - | - | - |
| 1788080299 | 36.11° C | 32% | 1013.5 hPa | 0 mm | - | - | - |
| 1788079699 | 36.67° C | 30% | 1013.4 hPa | 0 mm | - | - | - |
| 1788079099 | 36.11° C | 31% | 1013.4 hPa | 0 mm | - | - | - |
| 1788078498 | 35.56° C | 32% | 1013.3 hPa | 0 mm | - | - | - |
| 1788077898 | 36.67° C | 28% | 1013.1 hPa | 0 mm | - | - | - |
| 1788077298 | 37.22° C | 26% | 1012.8 hPa | 0 mm | - | - | - |
| 1788076698 | 37.22° C | 25% | 1012.7 hPa | 0 mm | - | - | - |
| 1788076098 | 36.67° C | 28% | 1012.8 hPa | 0 mm | - | - | - |
| 1788075498 | 36.11° C | 28% | 1012.9 hPa | 0 mm | - | - | - |
| 1788074897 | 35.56° C | 29% | 1012.8 hPa | 0 mm | - | - | - |
| 1788074297 | 33.89° C | 32% | 1012.8 hPa | 0 mm | - | - | - |
* Rain latest hour (hover to see other rain measurements)
** Current wind speed in m/s (hover to see current wind gust speed)